sensor_id;sensor_type;location;lat;lon;timestamp;pressure;altitude;pressure_sealevel;temperature;humidity
51031;BME280;37058;41.442;23.240;2022-09-09T00:08:52;100689.22;;;19.49;86.07
51031;BME280;37058;41.442;23.240;2022-09-09T00:11:51;100691.38;;;19.39;86.58
51031;BME280;37058;41.442;23.240;2022-09-09T00:14:46;100690.03;;;19.36;86.92
51031;BME280;37058;41.442;23.240;2022-09-09T00:17:31;100697.00;;;19.34;87.54
51031;BME280;37058;41.442;23.240;2022-09-09T00:23:40;100687.97;;;19.28;89.44
51031;BME280;37058;41.442;23.240;2022-09-09T00:29:31;100674.13;;;19.28;90.52
51031;BME280;37058;41.442;23.240;2022-09-09T00:32:16;100677.94;;;19.32;89.02
51031;BME280;37058;41.442;23.240;2022-09-09T00:35:03;100681.00;;;19.31;87.29
51031;BME280;37058;41.442;23.240;2022-09-09T00:37:31;100687.16;;;19.27;87.36
51031;BME280;37058;41.442;23.240;2022-09-09T00:40:02;100678.94;;;19.22;88.00
51031;BME280;37058;41.442;23.240;2022-09-09T00:42:42;100680.22;;;19.11;89.38
51031;BME280;37058;41.442;23.240;2022-09-09T00:47:51;100678.25;;;18.98;91.12
51031;BME280;37058;41.442;23.240;2022-09-09T00:53:34;100665.94;;;19.04;91.86
51031;BME280;37058;41.442;23.240;2022-09-09T00:56:24;100670.69;;;19.03;90.40
51031;BME280;37058;41.442;23.240;2022-09-09T00:59:43;100662.69;;;19.02;89.92
51031;BME280;37058;41.442;23.240;2022-09-09T01:11:22;100682.44;;;18.95;91.27
51031;BME280;37058;41.442;23.240;2022-09-09T01:16:54;100681.09;;;18.93;91.55
51031;BME280;37058;41.442;23.240;2022-09-09T01:28:28;100672.53;;;19.08;89.44
51031;BME280;37058;41.442;23.240;2022-09-09T01:31:09;100677.25;;;19.08;87.20
51031;BME280;37058;41.442;23.240;2022-09-09T01:33:43;100677.63;;;19.01;87.63
51031;BME280;37058;41.442;23.240;2022-09-09T01:37:15;100672.88;;;18.88;87.91
51031;BME280;37058;41.442;23.240;2022-09-09T01:39:53;100672.53;;;18.75;88.57
51031;BME280;37058;41.442;23.240;2022-09-09T01:42:28;100679.78;;;18.71;88.84
51031;BME280;37058;41.442;23.240;2022-09-09T01:45:09;100675.94;;;18.67;89.00
51031;BME280;37058;41.442;23.240;2022-09-09T01:47:44;100673.88;;;18.59;89.91
51031;BME280;37058;41.442;23.240;2022-09-09T01:50:25;100666.69;;;18.58;89.90
51031;BME280;37058;41.442;23.240;2022-09-09T01:53:02;100674.44;;;18.56;89.61
51031;BME280;37058;41.442;23.240;2022-09-09T01:55:45;100665.13;;;18.52;90.37
51031;BME280;37058;41.442;23.240;2022-09-09T01:59:03;100670.88;;;18.55;90.40
51031;BME280;37058;41.442;23.240;2022-09-09T02:01:53;100665.03;;;18.57;90.21
51031;BME280;37058;41.442;23.240;2022-09-09T02:05:23;100659.72;;;18.60;89.82
51031;BME280;37058;41.442;23.240;2022-09-09T02:11:24;100665.56;;;18.59;89.87
51031;BME280;37058;41.442;23.240;2022-09-09T02:14:21;100667.72;;;18.62;89.37
51031;BME280;37058;41.442;23.240;2022-09-09T02:17:09;100664.16;;;18.61;88.76
51031;BME280;37058;41.442;23.240;2022-09-09T02:19:55;100649.13;;;18.49;90.10
51031;BME280;37058;41.442;23.240;2022-09-09T02:22:30;100663.53;;;18.46;90.66
51031;BME280;37058;41.442;23.240;2022-09-09T02:25:02;100659.00;;;18.36;91.30
51031;BME280;37058;41.442;23.240;2022-09-09T02:27:32;100660.44;;;18.33;91.77
51031;BME280;37058;41.442;23.240;2022-09-09T02:30:04;100655.47;;;18.30;92.20
51031;BME280;37058;41.442;23.240;2022-09-09T02:32:36;100664.09;;;18.29;92.37
51031;BME280;37058;41.442;23.240;2022-09-09T02:35:16;100664.38;;;18.27;92.88
51031;BME280;37058;41.442;23.240;2022-09-09T02:37:45;100662.13;;;18.29;93.00
51031;BME280;37058;41.442;23.240;2022-09-09T02:40:15;100666.53;;;18.30;93.43
51031;BME280;37058;41.442;23.240;2022-09-09T02:42:46;100660.78;;;18.27;91.18
51031;BME280;37058;41.442;23.240;2022-09-09T02:45:18;100666.09;;;18.23;90.86
51031;BME280;37058;41.442;23.240;2022-09-09T02:48:18;100661.16;;;18.20;91.40
51031;BME280;37058;41.442;23.240;2022-09-09T02:53:59;100655.31;;;18.03;94.55
51031;BME280;37058;41.442;23.240;2022-09-09T02:56:33;100658.59;;;18.05;95.37
51031;BME280;37058;41.442;23.240;2022-09-09T02:59:04;100658.59;;;18.05;95.05
51031;BME280;37058;41.442;23.240;2022-09-09T03:01:30;100656.38;;;18.07;94.88
51031;BME280;37058;41.442;23.240;2022-09-09T03:03:59;100653.00;;;18.10;94.76
51031;BME280;37058;41.442;23.240;2022-09-09T03:06:32;100648.81;;;18.12;94.54
51031;BME280;37058;41.442;23.240;2022-09-09T03:08:58;100649.13;;;18.11;94.46
51031;BME280;37058;41.442;23.240;2022-09-09T03:11:28;100654.94;;;18.09;95.34
51031;BME280;37058;41.442;23.240;2022-09-09T03:13:57;100653.66;;;18.02;96.36
51031;BME280;37058;41.442;23.240;2022-09-09T03:16:27;100651.19;;;18.00;96.89
51031;BME280;37058;41.442;23.240;2022-09-09T03:18:54;100654.28;;;17.98;96.84
51031;BME280;37058;41.442;23.240;2022-09-09T03:21:20;100655.97;;;17.94;96.53
51031;BME280;37058;41.442;23.240;2022-09-09T03:23:47;100665.97;;;17.90;96.50
51031;BME280;37058;41.442;23.240;2022-09-09T03:26:13;100662.63;;;17.93;96.97
51031;BME280;37058;41.442;23.240;2022-09-09T03:28:57;100658.19;;;17.92;96.79
51031;BME280;37058;41.442;23.240;2022-09-09T03:31:32;100657.03;;;17.98;96.65
51031;BME280;37058;41.442;23.240;2022-09-09T03:34:10;100649.34;;;17.95;93.08
51031;BME280;37058;41.442;23.240;2022-09-09T03:36:45;100650.44;;;17.94;91.20
51031;BME280;37058;41.442;23.240;2022-09-09T03:39:17;100663.38;;;17.99;90.00
51031;BME280;37058;41.442;23.240;2022-09-09T03:41:51;100656.44;;;18.02;89.15
51031;BME280;37058;41.442;23.240;2022-09-09T03:44:33;100661.69;;;18.03;90.96
51031;BME280;37058;41.442;23.240;2022-09-09T03:47:13;100656.97;;;18.04;90.93
51031;BME280;37058;41.442;23.240;2022-09-09T03:49:48;100662.31;;;17.95;88.60
51031;BME280;37058;41.442;23.240;2022-09-09T03:52:15;100660.81;;;17.84;88.33
51031;BME280;37058;41.442;23.240;2022-09-09T03:54:42;100667.50;;;17.77;88.94
51031;BME280;37058;41.442;23.240;2022-09-09T03:57:11;100666.97;;;17.75;89.52
51031;BME280;37058;41.442;23.240;2022-09-09T03:59:40;100669.47;;;17.72;89.76
51031;BME280;37058;41.442;23.240;2022-09-09T04:02:08;100669.78;;;17.70;89.88
51031;BME280;37058;41.442;23.240;2022-09-09T04:04:38;100671.66;;;17.75;89.54
51031;BME280;37058;41.442;23.240;2022-09-09T04:07:05;100680.78;;;17.75;89.90
51031;BME280;37058;41.442;23.240;2022-09-09T04:09:32;100684.34;;;17.76;89.72
51031;BME280;37058;41.442;23.240;2022-09-09T04:11:59;100679.94;;;17.80;89.64
51031;BME280;37058;41.442;23.240;2022-09-09T04:14:25;100679.88;;;17.85;89.79
51031;BME280;37058;41.442;23.240;2022-09-09T04:16:54;100668.75;;;17.90;89.19
51031;BME280;37058;41.442;23.240;2022-09-09T04:19:21;100674.78;;;17.92;90.21
51031;BME280;37058;41.442;23.240;2022-09-09T04:21:47;100671.66;;;17.99;88.13
51031;BME280;37058;41.442;23.240;2022-09-09T04:24:15;100678.59;;;17.96;86.42
51031;BME280;37058;41.442;23.240;2022-09-09T04:26:42;100685.00;;;17.92;86.68
51031;BME280;37058;41.442;23.240;2022-09-09T04:29:08;100680.03;;;17.94;86.61
51031;BME280;37058;41.442;23.240;2022-09-09T04:31:36;100685.00;;;17.92;86.38
51031;BME280;37058;41.442;23.240;2022-09-09T04:34:03;100695.19;;;17.96;87.00
51031;BME280;37058;41.442;23.240;2022-09-09T04:36:34;100688.47;;;18.03;86.60
51031;BME280;37058;41.442;23.240;2022-09-09T04:39:01;100691.47;;;18.06;86.53
51031;BME280;37058;41.442;23.240;2022-09-09T04:41:27;100682.22;;;18.16;86.43
51031;BME280;37058;41.442;23.240;2022-09-09T04:43:53;100689.25;;;18.27;86.30
51031;BME280;37058;41.442;23.240;2022-09-09T04:46:21;100686.59;;;18.41;86.19
51031;BME280;37058;41.442;23.240;2022-09-09T04:48:49;100697.94;;;18.58;86.24
51031;BME280;37058;41.442;23.240;2022-09-09T04:51:17;100692.72;;;18.76;86.28
51031;BME280;37058;41.442;23.240;2022-09-09T04:53:48;100694.84;;;18.98;86.34
51031;BME280;37058;41.442;23.240;2022-09-09T04:56:19;100692.25;;;19.20;85.34
51031;BME280;37058;41.442;23.240;2022-09-09T04:58:52;100691.06;;;19.40;84.67
51031;BME280;37058;41.442;23.240;2022-09-09T05:01:26;100688.97;;;19.65;83.74
51031;BME280;37058;41.442;23.240;2022-09-09T05:03:57;100679.41;;;19.85;82.51
51031;BME280;37058;41.442;23.240;2022-09-09T05:06:30;100674.41;;;20.01;80.49
51031;BME280;37058;41.442;23.240;2022-09-09T05:09:01;100681.47;;;20.21;79.74
51031;BME280;37058;41.442;23.240;2022-09-09T05:11:35;100681.66;;;20.24;79.44
51031;BME280;37058;41.442;23.240;2022-09-09T05:14:04;100688.59;;;20.35;79.54
51031;BME280;37058;41.442;23.240;2022-09-09T05:16:34;100690.19;;;20.50;78.81
51031;BME280;37058;41.442;23.240;2022-09-09T05:19:06;100678.88;;;20.61;78.46
51031;BME280;37058;41.442;23.240;2022-09-09T05:21:37;100677.97;;;20.65;78.10
51031;BME280;37058;41.442;23.240;2022-09-09T05:24:04;100687.88;;;20.80;77.78
51031;BME280;37058;41.442;23.240;2022-09-09T05:26:30;100679.81;;;20.92;77.31
51031;BME280;37058;41.442;23.240;2022-09-09T05:28:58;100688.28;;;21.18;76.28
51031;BME280;37058;41.442;23.240;2022-09-09T05:31:26;100678.50;;;21.43;75.57
51031;BME280;37058;41.442;23.240;2022-09-09T05:33:55;100677.44;;;22.11;72.91
51031;BME280;37058;41.442;23.240;2022-09-09T05:36:23;100688.13;;;22.96;69.47
51031;BME280;37058;41.442;23.240;2022-09-09T05:38:50;100691.75;;;22.87;69.19
51031;BME280;37058;41.442;23.240;2022-09-09T05:41:30;100680.06;;;23.29;68.02
51031;BME280;37058;41.442;23.240;2022-09-09T05:44:04;100680.25;;;23.62;66.60
51031;BME280;37058;41.442;23.240;2022-09-09T05:46:43;100685.34;;;24.28;64.95
51031;BME280;37058;41.442;23.240;2022-09-09T05:49:22;100691.19;;;26.14;58.10
51031;BME280;37058;41.442;23.240;2022-09-09T05:55:35;100680.97;;;29.00;50.30
51031;BME280;37058;41.442;23.240;2022-09-09T05:58:40;100674.22;;;30.47;46.68
51031;BME280;37058;41.442;23.240;2022-09-09T06:01:35;100683.53;;;31.56;43.79
51031;BME280;37058;41.442;23.240;2022-09-09T06:04:25;100685.91;;;32.60;40.83
51031;BME280;37058;41.442;23.240;2022-09-09T06:07:02;100674.03;;;33.28;39.26
51031;BME280;37058;41.442;23.240;2022-09-09T06:09:35;100683.72;;;34.27;37.77
51031;BME280;37058;41.442;23.240;2022-09-09T06:12:16;100682.28;;;34.93;36.71
51031;BME280;37058;41.442;23.240;2022-09-09T06:14:56;100667.97;;;34.12;37.33
51031;BME280;37058;41.442;23.240;2022-09-09T06:17:57;100666.19;;;32.02;41.24
51031;BME280;37058;41.442;23.240;2022-09-09T06:20:58;100665.22;;;31.01;44.17
51031;BME280;37058;41.442;23.240;2022-09-09T06:23:29;100670.19;;;30.48;45.63
51031;BME280;37058;41.442;23.240;2022-09-09T06:27:06;100681.25;;;29.80;46.80
51031;BME280;37058;41.442;23.240;2022-09-09T06:29:40;100671.53;;;29.31;48.08
51031;BME280;37058;41.442;23.240;2022-09-09T06:32:07;100671.31;;;29.17;49.03
51031;BME280;37058;41.442;23.240;2022-09-09T06:34:36;100675.09;;;29.05;48.96
51031;BME280;37058;41.442;23.240;2022-09-09T06:37:28;100666.16;;;29.03;48.71
51031;BME280;37058;41.442;23.240;2022-09-09T06:40:17;100664.50;;;28.60;50.48
51031;BME280;37058;41.442;23.240;2022-09-09T06:43:15;100665.09;;;28.69;49.67
51031;BME280;37058;41.442;23.240;2022-09-09T06:46:44;100663.63;;;28.94;49.68
51031;BME280;37058;41.442;23.240;2022-09-09T06:49:36;100666.19;;;31.13;45.34
51031;BME280;37058;41.442;23.240;2022-09-09T06:52:15;100672.41;;;34.27;38.13
51031;BME280;37058;41.442;23.240;2022-09-09T06:54:48;100658.03;;;36.34;33.96
51031;BME280;37058;41.442;23.240;2022-09-09T06:57:21;100668.78;;;37.69;31.67
51031;BME280;37058;41.442;23.240;2022-09-09T06:59:57;100661.59;;;38.68;30.20
51031;BME280;37058;41.442;23.240;2022-09-09T07:02:27;100676.88;;;39.51;29.13
51031;BME280;37058;41.442;23.240;2022-09-09T07:04:56;100662.88;;;37.29;32.10
51031;BME280;37058;41.442;23.240;2022-09-09T07:07:25;100667.78;;;34.80;36.30
51031;BME280;37058;41.442;23.240;2022-09-09T07:09:52;100662.72;;;33.50;38.65
51031;BME280;37058;41.442;23.240;2022-09-09T07:12:18;100654.25;;;32.30;40.90
51031;BME280;37058;41.442;23.240;2022-09-09T07:14:45;100653.25;;;31.49;43.07
51031;BME280;37058;41.442;23.240;2022-09-09T07:17:13;100653.59;;;30.73;44.24
51031;BME280;37058;41.442;23.240;2022-09-09T07:19:40;100657.03;;;29.98;46.16
51031;BME280;37058;41.442;23.240;2022-09-09T07:22:09;100667.00;;;29.69;47.69
51031;BME280;37058;41.442;23.240;2022-09-09T07:24:41;100666.28;;;29.07;49.07
51031;BME280;37058;41.442;23.240;2022-09-09T07:27:11;100657.41;;;28.66;50.03
51031;BME280;37058;41.442;23.240;2022-09-09T07:29:41;100657.69;;;28.06;51.24
51031;BME280;37058;41.442;23.240;2022-09-09T07:32:25;100656.63;;;27.63;52.42
51031;BME280;37058;41.442;23.240;2022-09-09T07:35:21;100645.56;;;27.22;53.96
51031;BME280;37058;41.442;23.240;2022-09-09T07:38:46;100647.81;;;27.17;54.03
51031;BME280;37058;41.442;23.240;2022-09-09T07:44:33;100653.31;;;27.13;54.42
51031;BME280;37058;41.442;23.240;2022-09-09T07:47:06;100641.53;;;27.08;52.92
51031;BME280;37058;41.442;23.240;2022-09-09T07:49:42;100641.75;;;27.15;53.41
51031;BME280;37058;41.442;23.240;2022-09-09T07:53:09;100644.53;;;27.15;53.58
51031;BME280;37058;41.442;23.240;2022-09-09T07:55:47;100646.16;;;27.16;52.70
51031;BME280;37058;41.442;23.240;2022-09-09T07:58:25;100649.28;;;27.27;52.81
51031;BME280;37058;41.442;23.240;2022-09-09T08:01:22;100647.47;;;27.34;53.65
51031;BME280;37058;41.442;23.240;2022-09-09T08:04:36;100632.91;;;27.44;53.14
51031;BME280;37058;41.442;23.240;2022-09-09T08:07:15;100632.56;;;27.46;52.94
51031;BME280;37058;41.442;23.240;2022-09-09T08:09:49;100629.03;;;27.49;53.30
51031;BME280;37058;41.442;23.240;2022-09-09T08:12:18;100623.88;;;27.51;52.61
51031;BME280;37058;41.442;23.240;2022-09-09T08:14:50;100626.59;;;27.48;52.09
51031;BME280;37058;41.442;23.240;2022-09-09T08:17:21;100626.22;;;27.49;52.72
51031;BME280;37058;41.442;23.240;2022-09-09T08:20:00;100619.88;;;27.52;52.30
51031;BME280;37058;41.442;23.240;2022-09-09T08:22:33;100613.19;;;27.57;52.25
51031;BME280;37058;41.442;23.240;2022-09-09T08:25:29;100616.06;;;27.44;53.03
51031;BME280;37058;41.442;23.240;2022-09-09T08:28:10;100621.53;;;27.37;54.33
51031;BME280;37058;41.442;23.240;2022-09-09T08:30:49;100618.09;;;27.28;53.28
51031;BME280;37058;41.442;23.240;2022-09-09T08:33:17;100620.81;;;27.25;53.81
51031;BME280;37058;41.442;23.240;2022-09-09T08:35:55;100602.84;;;27.13;53.79
51031;BME280;37058;41.442;23.240;2022-09-09T08:38:35;100610.44;;;27.13;54.17
51031;BME280;37058;41.442;23.240;2022-09-09T08:41:46;100604.41;;;27.27;51.94
51031;BME280;37058;41.442;23.240;2022-09-09T08:44:45;100599.63;;;27.43;52.06
51031;BME280;37058;41.442;23.240;2022-09-09T08:50:49;100598.00;;;27.58;52.05
51031;BME280;37058;41.442;23.240;2022-09-09T08:53:30;100601.16;;;27.56;52.46
51031;BME280;37058;41.442;23.240;2022-09-09T08:56:32;100604.47;;;27.62;52.42
51031;BME280;37058;41.442;23.240;2022-09-09T08:59:02;100597.88;;;27.70;52.96
51031;BME280;37058;41.442;23.240;2022-09-09T09:05:02;100592.91;;;27.63;52.78
51031;BME280;37058;41.442;23.240;2022-09-09T09:07:58;100596.44;;;27.44;52.84
51031;BME280;37058;41.442;23.240;2022-09-09T09:10:49;100594.38;;;27.41;53.23
51031;BME280;37058;41.442;23.240;2022-09-09T09:13:25;100587.16;;;27.40;52.83
51031;BME280;37058;41.442;23.240;2022-09-09T09:18:47;100578.88;;;27.63;52.67
51031;BME280;37058;41.442;23.240;2022-09-09T09:21:41;100586.56;;;27.82;52.39
51031;BME280;37058;41.442;23.240;2022-09-09T09:28:25;100562.59;;;28.04;51.90
51031;BME280;37058;41.442;23.240;2022-09-09T09:31:13;100556.69;;;28.09;51.64
51031;BME280;37058;41.442;23.240;2022-09-09T09:33:56;100556.75;;;27.94;52.45
51031;BME280;37058;41.442;23.240;2022-09-09T09:36:39;100553.94;;;27.94;52.25
51031;BME280;37058;41.442;23.240;2022-09-09T09:39:09;100560.44;;;27.98;52.29
51031;BME280;37058;41.442;23.240;2022-09-09T09:41:47;100556.53;;;28.02;52.81
51031;BME280;37058;41.442;23.240;2022-09-09T09:44:32;100556.31;;;27.92;50.97
51031;BME280;37058;41.442;23.240;2022-09-09T09:47:20;100549.78;;;27.87;51.53
51031;BME280;37058;41.442;23.240;2022-09-09T09:50:01;100553.78;;;27.86;51.06
51031;BME280;37058;41.442;23.240;2022-09-09T09:52:33;100551.59;;;27.96;52.41
51031;BME280;37058;41.442;23.240;2022-09-09T09:55:11;100551.72;;;28.03;52.46
51031;BME280;37058;41.442;23.240;2022-09-09T09:57:43;100547.91;;;28.11;52.15
51031;BME280;37058;41.442;23.240;2022-09-09T10:00:23;100542.66;;;28.09;51.82
51031;BME280;37058;41.442;23.240;2022-09-09T10:03:00;100541.03;;;28.08;52.53
51031;BME280;37058;41.442;23.240;2022-09-09T10:05:35;100535.44;;;28.08;53.08
51031;BME280;37058;41.442;23.240;2022-09-09T10:08:17;100539.19;;;28.16;53.42
51031;BME280;37058;41.442;23.240;2022-09-09T10:11:30;100537.84;;;28.29;51.68
51031;BME280;37058;41.442;23.240;2022-09-09T10:33:09;100513.31;;;28.46;50.75
51031;BME280;37058;41.442;23.240;2022-09-09T10:36:28;100517.91;;;28.54;50.56
51031;BME280;37058;41.442;23.240;2022-09-09T10:40:04;100516.50;;;28.64;51.22
51031;BME280;37058;41.442;23.240;2022-09-09T10:42:41;100518.16;;;28.68;50.59
51031;BME280;37058;41.442;23.240;2022-09-09T10:46:01;100516.53;;;28.67;50.21
51031;BME280;37058;41.442;23.240;2022-09-09T10:52:19;100507.22;;;28.63;50.21
51031;BME280;37058;41.442;23.240;2022-09-09T10:55:11;100504.72;;;28.58;50.69
51031;BME280;37058;41.442;23.240;2022-09-09T10:57:52;100497.50;;;28.57;51.04
51031;BME280;37058;41.442;23.240;2022-09-09T11:00:49;100499.25;;;28.65;50.83
51031;BME280;37058;41.442;23.240;2022-09-09T11:06:41;100480.16;;;28.74;51.66
51031;BME280;37058;41.442;23.240;2022-09-09T11:09:17;100481.63;;;28.68;50.85
51031;BME280;37058;41.442;23.240;2022-09-09T11:11:54;100472.38;;;28.68;51.37
51031;BME280;37058;41.442;23.240;2022-09-09T11:14:44;100473.63;;;28.70;51.53
51031;BME280;37058;41.442;23.240;2022-09-09T11:17:42;100476.75;;;28.65;51.67
51031;BME280;37058;41.442;23.240;2022-09-09T11:20:25;100472.03;;;28.69;52.15
51031;BME280;37058;41.442;23.240;2022-09-09T11:23:03;100461.66;;;28.73;51.49
51031;BME280;37058;41.442;23.240;2022-09-09T11:25:55;100456.16;;;28.81;50.81
51031;BME280;37058;41.442;23.240;2022-09-09T11:29:08;100448.22;;;28.86;50.86
51031;BME280;37058;41.442;23.240;2022-09-09T11:38:25;100446.75;;;28.96;48.76
51031;BME280;37058;41.442;23.240;2022-09-09T11:41:02;100438.81;;;29.02;49.09
51031;BME280;37058;41.442;23.240;2022-09-09T11:43:51;100450.91;;;29.02;50.07
51031;BME280;37058;41.442;23.240;2022-09-09T11:46:22;100448.41;;;28.97;49.28
51031;BME280;37058;41.442;23.240;2022-09-09T11:49:00;100444.41;;;28.98;49.21
51031;BME280;37058;41.442;23.240;2022-09-09T11:51:29;100440.69;;;28.94;49.35
51031;BME280;37058;41.442;23.240;2022-09-09T11:56:46;100429.78;;;29.12;49.56
51031;BME280;37058;41.442;23.240;2022-09-09T11:59:23;100432.22;;;29.13;48.79
51031;BME280;37058;41.442;23.240;2022-09-09T12:01:54;100431.84;;;29.15;49.45
51031;BME280;37058;41.442;23.240;2022-09-09T12:04:37;100424.69;;;29.21;49.13
51031;BME280;37058;41.442;23.240;2022-09-09T12:07:23;100421.19;;;29.28;48.88
51031;BME280;37058;41.442;23.240;2022-09-09T12:09:59;100417.69;;;29.38;49.30
51031;BME280;37058;41.442;23.240;2022-09-09T12:12:33;100410.09;;;29.42;49.63
51031;BME280;37058;41.442;23.240;2022-09-09T12:15:18;100404.81;;;29.37;49.01
51031;BME280;37058;41.442;23.240;2022-09-09T12:17:52;100411.22;;;29.34;48.76
51031;BME280;37058;41.442;23.240;2022-09-09T12:20:37;100404.41;;;29.35;48.69
51031;BME280;37058;41.442;23.240;2022-09-09T12:25:57;100393.19;;;29.38;49.68
51031;BME280;37058;41.442;23.240;2022-09-09T12:31:21;100389.00;;;29.55;49.42
51031;BME280;37058;41.442;23.240;2022-09-09T12:33:50;100392.66;;;29.59;49.52
51031;BME280;37058;41.442;23.240;2022-09-09T12:36:23;100386.66;;;29.61;49.20
51031;BME280;37058;41.442;23.240;2022-09-09T12:38:50;100377.00;;;29.62;48.93
51031;BME280;37058;41.442;23.240;2022-09-09T12:41:22;100376.31;;;29.69;49.67
51031;BME280;37058;41.442;23.240;2022-09-09T12:43:49;100368.31;;;29.71;49.53
51031;BME280;37058;41.442;23.240;2022-09-09T12:46:37;100371.50;;;29.69;48.66
51031;BME280;37058;41.442;23.240;2022-09-09T12:49:04;100364.25;;;29.68;48.32
51031;BME280;37058;41.442;23.240;2022-09-09T12:51:32;100369.09;;;29.68;47.85
51031;BME280;37058;41.442;23.240;2022-09-09T12:53:58;100367.50;;;29.70;48.38
51031;BME280;37058;41.442;23.240;2022-09-09T12:56:29;100358.63;;;29.68;49.23
51031;BME280;37058;41.442;23.240;2022-09-09T12:58:57;100355.41;;;29.70;49.53
51031;BME280;37058;41.442;23.240;2022-09-09T13:01:31;100362.69;;;29.71;49.99
51031;BME280;37058;41.442;23.240;2022-09-09T13:03:58;100361.09;;;29.73;49.93
51031;BME280;37058;41.442;23.240;2022-09-09T13:06:31;100359.09;;;29.74;49.29
51031;BME280;37058;41.442;23.240;2022-09-09T13:08:59;100354.69;;;29.73;49.39
51031;BME280;37058;41.442;23.240;2022-09-09T13:11:30;100346.59;;;29.71;49.08
51031;BME280;37058;41.442;23.240;2022-09-09T13:14:00;100350.22;;;29.72;48.75
51031;BME280;37058;41.442;23.240;2022-09-09T13:16:30;100345.00;;;29.70;48.77
51031;BME280;37058;41.442;23.240;2022-09-09T13:19:17;100340.59;;;29.73;48.54
51031;BME280;37058;41.442;23.240;2022-09-09T13:21:43;100342.22;;;29.74;48.83
51031;BME280;37058;41.442;23.240;2022-09-09T13:24:31;100343.41;;;29.73;47.55
51031;BME280;37058;41.442;23.240;2022-09-09T13:26:59;100343.41;;;29.73;48.59
51031;BME280;37058;41.442;23.240;2022-09-09T13:29:27;100343.41;;;29.73;48.82
51031;BME280;37058;41.442;23.240;2022-09-09T13:31:53;100340.59;;;29.73;48.65
51031;BME280;37058;41.442;23.240;2022-09-09T13:34:31;100344.22;;;29.73;48.02
51031;BME280;37058;41.442;23.240;2022-09-09T13:37:05;100348.63;;;29.71;48.62
51031;BME280;37058;41.442;23.240;2022-09-09T13:39:35;100336.94;;;29.69;48.40
51031;BME280;37058;41.442;23.240;2022-09-09T13:42:02;100341.75;;;29.68;48.49
51031;BME280;37058;41.442;23.240;2022-09-09T13:44:36;100345.75;;;29.67;49.48
51031;BME280;37058;41.442;23.240;2022-09-09T13:47:31;100352.91;;;29.65;49.17
51031;BME280;37058;41.442;23.240;2022-09-09T13:49:57;100345.69;;;29.64;49.89
51031;BME280;37058;41.442;23.240;2022-09-09T13:52:23;100349.78;;;29.70;49.93
51031;BME280;37058;41.442;23.240;2022-09-09T13:54:52;100346.63;;;29.75;49.98
51031;BME280;37058;41.442;23.240;2022-09-09T13:57:23;100345.44;;;29.76;49.66
51031;BME280;37058;41.442;23.240;2022-09-09T13:59:54;100341.00;;;29.75;50.13
51031;BME280;37058;41.442;23.240;2022-09-09T14:02:22;100337.00;;;29.76;49.86
51031;BME280;37058;41.442;23.240;2022-09-09T14:04:48;100341.06;;;29.78;49.84
51031;BME280;37058;41.442;23.240;2022-09-09T14:07:17;100339.03;;;29.79;50.27
51031;BME280;37058;41.442;23.240;2022-09-09T14:09:44;100333.84;;;29.81;51.21
51031;BME280;37058;41.442;23.240;2022-09-09T14:12:15;100333.44;;;29.83;51.95
51031;BME280;37058;41.442;23.240;2022-09-09T14:14:43;100335.47;;;29.82;52.63
51031;BME280;37058;41.442;23.240;2022-09-09T14:17:11;100343.53;;;29.84;53.40
51031;BME280;37058;41.442;23.240;2022-09-09T14:19:36;100333.84;;;29.81;53.47
51031;BME280;37058;41.442;23.240;2022-09-09T14:22:02;100340.66;;;29.80;52.99
51031;BME280;37058;41.442;23.240;2022-09-09T14:24:28;100331.41;;;29.79;53.15
51031;BME280;37058;41.442;23.240;2022-09-09T14:26:54;100338.25;;;29.78;53.14
51031;BME280;37058;41.442;23.240;2022-09-09T14:29:20;100337.44;;;29.78;53.65
51031;BME280;37058;41.442;23.240;2022-09-09T14:31:46;100332.19;;;29.76;53.58
51031;BME280;37058;41.442;23.240;2022-09-09T14:34:12;100334.66;;;29.81;53.09
51031;BME280;37058;41.442;23.240;2022-09-09T14:36:40;100334.31;;;29.87;53.22
51031;BME280;37058;41.442;23.240;2022-09-09T14:39:07;100332.72;;;29.89;53.39
51031;BME280;37058;41.442;23.240;2022-09-09T14:41:33;100329.91;;;29.89;51.98
51031;BME280;37058;41.442;23.240;2022-09-09T14:43:59;100320.59;;;29.85;50.92
51031;BME280;37058;41.442;23.240;2022-09-09T14:46:25;100317.75;;;29.78;50.75
51031;BME280;37058;41.442;23.240;2022-09-09T14:48:52;100316.88;;;29.74;51.68
51031;BME280;37058;41.442;23.240;2022-09-09T14:51:20;100314.03;;;29.70;51.66
51031;BME280;37058;41.442;23.240;2022-09-09T14:53:47;100316.34;;;29.65;51.86
51031;BME280;37058;41.442;23.240;2022-09-09T14:56:15;100317.19;;;29.65;52.05
51031;BME280;37058;41.442;23.240;2022-09-09T14:58:42;100308.66;;;29.62;51.97
51031;BME280;37058;41.442;23.240;2022-09-09T15:01:10;100307.06;;;29.60;52.25
51031;BME280;37058;41.442;23.240;2022-09-09T15:03:37;100299.41;;;29.57;52.81
51031;BME280;37058;41.442;23.240;2022-09-09T15:06:08;100296.97;;;29.56;53.02
51031;BME280;37058;41.442;23.240;2022-09-09T15:08:36;100308.16;;;29.52;53.35
51031;BME280;37058;41.442;23.240;2022-09-09T15:11:03;100302.94;;;29.51;54.02
51031;BME280;37058;41.442;23.240;2022-09-09T15:13:39;100302.53;;;29.52;54.07
51031;BME280;37058;41.442;23.240;2022-09-09T15:16:16;100299.78;;;29.59;54.13
51031;BME280;37058;41.442;23.240;2022-09-09T15:18:47;100298.75;;;29.71;53.05
51031;BME280;37058;41.442;23.240;2022-09-09T15:21:49;100297.09;;;29.67;52.52